Time;durP1;ratioP1;P1;durP2;ratioP2;P2;SDS_P1;SDS_P2;PMS_P1;PMS_P2;Temp;Humidity;BMP_temperature;BMP_pressure;BME280_temperature;BME280_humidity;BME280_pressure;Samples;Min_cycle;Max_cycle;Signal;HPM_P1;HPM_P2
2023/09/17 00:00:19;;;;;;;7.80;7.20;;;17.50;99.90;;;;;;460516;254;28957;-72
2023/09/17 00:02:20;;;;;;;9.37;8.53;;;17.50;99.90;;;;;;469643;253;29062;-73
2023/09/17 00:04:23;;;;;;;8.90;8.00;;;17.50;99.90;;;;;;469626;253;29000;-72
2023/09/17 00:06:23;;;;;;;9.57;8.57;;;17.50;99.90;;;;;;460472;258;28988;-73
2023/09/17 00:08:24;;;;;;;8.80;8.00;;;17.50;99.90;;;;;;469610;253;29314;-72
2023/09/17 00:10:25;;;;;;;9.33;8.43;;;17.50;99.90;;;;;;469646;253;29080;-72
2023/09/17 00:12:27;;;;;;;9.20;8.30;;;17.50;99.90;;;;;;460518;258;28984;-72
2023/09/17 00:14:28;;;;;;;8.70;7.90;;;17.40;99.90;;;;;;469619;253;28901;-72
2023/09/17 00:16:31;;;;;;;8.80;8.00;;;17.40;99.90;;;;;;469628;253;28947;-72
2023/09/17 00:18:30;;;;;;;9.67;8.40;;;17.50;99.90;;;;;;460456;258;29504;-73
2023/09/17 00:20:32;;;;;;;8.30;7.60;;;17.50;99.90;;;;;;469622;253;29365;-72
2023/09/17 00:22:33;;;;;;;7.17;6.30;;;17.50;99.90;;;;;;469618;253;29430;-73
2023/09/17 00:24:34;;;;;;;7.23;6.57;;;17.50;99.90;;;;;;460490;258;29062;-73
2023/09/17 00:26:35;;;;;;;7.83;7.10;;;17.50;99.90;;;;;;469635;253;28981;-72
2023/09/17 00:28:37;;;;;;;7.97;7.17;;;17.50;99.90;;;;;;469603;253;29070;-72
2023/09/17 00:30:38;;;;;;;7.90;7.17;;;17.50;99.90;;;;;;460528;258;29006;-72
2023/09/17 00:32:39;;;;;;;16.20;9.53;;;17.40;99.90;;;;;;469616;253;28942;-73
2023/09/17 00:34:40;;;;;;;7.60;6.90;;;17.30;99.90;;;;;;469620;253;29021;-73
2023/09/17 00:36:42;;;;;;;7.87;6.70;;;17.30;99.90;;;;;;460503;258;29053;-72
2023/09/17 00:38:43;;;;;;;7.30;6.60;;;17.40;99.90;;;;;;469616;253;29113;-73
2023/09/17 00:40:44;;;;;;;7.50;6.80;;;17.40;99.90;;;;;;460492;258;28945;-72
2023/09/17 00:42:45;;;;;;;7.73;7.03;;;17.40;99.90;;;;;;469612;253;29439;-72
2023/09/17 00:44:47;;;;;;;7.70;7.00;;;17.40;99.90;;;;;;460551;258;29558;-73
2023/09/17 00:46:48;;;;;;;8.17;7.30;;;17.40;99.90;;;;;;469628;253;29542;-72
2023/09/17 00:48:49;;;;;;;9.03;8.13;;;17.30;99.90;;;;;;460499;258;29080;-72
2023/09/17 00:50:50;;;;;;;9.00;8.10;;;17.30;99.90;;;;;;469642;253;28987;-72
2023/09/17 00:52:52;;;;;;;10.40;8.30;;;17.30;99.90;;;;;;460498;258;28964;-72
2023/09/17 00:54:53;;;;;;;8.80;7.80;;;17.30;99.90;;;;;;469638;253;28962;-73
2023/09/17 00:56:54;;;;;;;9.60;8.10;;;17.30;99.90;;;;;;460523;258;28936;-72
2023/09/17 00:58:55;;;;;;;7.50;6.80;;;17.30;99.90;;;;;;469623;253;29029;-72
2023/09/17 01:00:58;;;;;;;10.83;7.67;;;17.40;99.90;;;;;;469622;253;28964;-72
2023/09/17 01:03:02;;;;;;;9.40;8.50;;;17.30;99.90;;;;;;460499;258;29058;-72
2023/09/17 01:04:59;;;;;;;8.57;7.67;;;17.40;99.90;;;;;;469380;253;29435;-73
2023/09/17 01:07:01;;;;;;;9.50;7.70;;;17.40;99.90;;;;;;460510;258;29466;-72
2023/09/17 01:09:02;;;;;;;7.30;6.60;;;17.40;99.90;;;;;;469597;253;29439;-72
2023/09/17 01:11:03;;;;;;;8.90;6.87;;;17.40;99.90;;;;;;460514;258;29552;-74
2023/09/17 01:13:04;;;;;;;6.60;6.00;;;17.40;99.90;;;;;;469646;253;29010;-72
2023/09/17 01:15:05;;;;;;;5.90;5.30;;;17.40;99.90;;;;;;460534;258;29020;-73
2023/09/17 01:17:07;;;;;;;5.97;5.37;;;17.40;99.90;;;;;;469578;248;28948;-72
2023/09/17 01:19:08;;;;;;;5.77;5.20;;;17.50;99.90;;;;;;460493;258;28988;-73
2023/09/17 01:21:09;;;;;;;6.97;6.27;;;17.50;99.90;;;;;;469652;253;29052;-74
2023/09/17 01:23:10;;;;;;;7.47;6.70;;;17.50;99.90;;;;;;460506;258;28983;-72
2023/09/17 01:25:12;;;;;;;6.73;6.13;;;17.50;99.90;;;;;;469608;253;28959;-72
2023/09/17 01:27:14;;;;;;;6.77;6.07;;;17.60;99.90;;;;;;460506;258;29053;-72
2023/09/17 01:29:14;;;;;;;8.00;6.50;;;17.60;99.90;;;;;;469583;248;29057;-72
2023/09/17 01:31:15;;;;;;;8.20;7.37;;;17.70;99.90;;;;;;469646;253;29506;-73
2023/09/17 01:33:17;;;;;;;8.83;8.03;;;17.60;99.90;;;;;;460520;258;29519;-72
2023/09/17 01:35:19;;;;;;;9.43;7.73;;;17.60;99.90;;;;;;469621;253;29435;-73
2023/09/17 01:37:19;;;;;;;9.03;8.10;;;17.60;99.90;;;;;;460512;258;29023;-72
2023/09/17 01:39:22;;;;;;;9.60;8.23;;;17.50;99.90;;;;;;469658;253;29029;-73
2023/09/17 01:41:22;;;;;;;8.83;7.93;;;17.50;99.90;;;;;;460479;253;28986;-72
2023/09/17 01:43:23;;;;;;;11.00;9.03;;;17.40;99.90;;;;;;469629;253;28914;-72
2023/09/17 01:45:24;;;;;;;10.47;7.70;;;17.40;99.90;;;;;;460544;258;29114;-73
2023/09/17 01:47:27;;;;;;;8.10;7.30;;;17.40;99.90;;;;;;451580;262;29005;-75
2023/09/17 01:49:27;;;;;;;9.07;7.70;;;17.40;99.90;;;;;;467794;254;29287;-72
2023/09/17 01:51:29;;;;;;;8.90;8.00;;;17.50;99.90;;;;;;460556;253;29470;-72
2023/09/17 01:53:29;;;;;;;8.30;7.50;;;17.50;99.90;;;;;;469545;253;29367;-72
2023/09/17 01:55:31;;;;;;;10.20;6.73;;;17.50;99.90;;;;;;460553;258;29027;-72
2023/09/17 01:57:32;;;;;;;8.50;7.03;;;17.50;99.90;;;;;;469661;253;28980;-73
2023/09/17 01:59:33;;;;;;;9.30;7.70;;;17.50;99.90;;;;;;460536;258;29040;-72
2023/09/17 02:01:34;;;;;;;7.83;7.10;;;17.50;99.90;;;;;;469666;253;28944;-73
2023/09/17 02:03:35;;;;;;;8.40;7.60;;;17.60;99.90;;;;;;460580;258;28989;-72
2023/09/17 02:05:37;;;;;;;9.50;7.83;;;17.60;99.90;;;;;;469681;253;28932;-72
2023/09/17 02:07:38;;;;;;;8.70;6.93;;;17.60;99.90;;;;;;460550;258;29004;-73
2023/09/17 02:09:39;;;;;;;8.57;7.27;;;17.60;99.90;;;;;;469650;253;29030;-72
2023/09/17 02:11:40;;;;;;;7.33;6.63;;;17.60;99.90;;;;;;460529;258;28986;-72
2023/09/17 02:13:42;;;;;;;7.03;6.33;;;17.70;99.90;;;;;;469645;253;29598;-74
2023/09/17 02:15:44;;;;;;;7.60;6.53;;;17.70;99.90;;;;;;460545;258;29424;-72
2023/09/17 02:17:44;;;;;;;8.70;7.20;;;17.70;99.90;;;;;;469564;253;29440;-73
2023/09/17 02:19:46;;;;;;;7.53;6.83;;;17.70;99.90;;;;;;460508;258;29027;-72
2023/09/17 02:21:47;;;;;;;7.00;6.30;;;17.80;99.90;;;;;;469654;253;28963;-73
2023/09/17 02:23:48;;;;;;;6.77;6.00;;;17.80;99.90;;;;;;460544;258;29041;-75
2023/09/17 02:25:49;;;;;;;8.50;7.67;;;17.80;99.90;;;;;;469651;253;28946;-73
2023/09/17 02:27:51;;;;;;;6.53;5.93;;;17.70;99.90;;;;;;460527;258;29000;-72
2023/09/17 02:29:52;;;;;;;6.83;6.13;;;17.70;99.90;;;;;;469632;253;28944;-72
2023/09/17 02:31:54;;;;;;;6.40;5.80;;;17.70;99.90;;;;;;460551;258;29569;-72
2023/09/17 02:33:54;;;;;;;8.33;7.40;;;17.70;99.90;;;;;;469658;253;29429;-72
2023/09/17 02:35:56;;;;;;;8.27;7.00;;;17.70;99.90;;;;;;469637;253;29475;-72
2023/09/17 02:37:57;;;;;;;7.30;6.30;;;17.80;99.90;;;;;;460508;258;29479;-73
2023/09/17 02:39:58;;;;;;;9.40;6.70;;;17.70;99.90;;;;;;469669;253;28989;-71
2023/09/17 02:41:59;;;;;;;8.53;7.20;;;17.80;99.90;;;;;;460536;258;29046;-72
2023/09/17 02:44:02;;;;;;;7.80;6.87;;;17.80;99.90;;;;;;469634;249;29056;-72
2023/09/17 02:46:03;;;;;;;7.40;6.70;;;17.80;99.90;;;;;;460421;258;29080;-73
2023/09/17 02:48:03;;;;;;;8.20;7.33;;;17.80;99.90;;;;;;469528;253;29043;-72
2023/09/17 02:50:04;;;;;;;7.60;6.80;;;17.90;99.90;;;;;;460540;258;29012;-72
2023/09/17 02:52:06;;;;;;;7.10;5.90;;;17.80;99.90;;;;;;469656;253;28987;-72
2023/09/17 02:54:07;;;;;;;7.77;7.00;;;17.80;99.90;;;;;;460533;258;29049;-72
2023/09/17 02:56:08;;;;;;;7.37;6.77;;;17.80;99.90;;;;;;469638;249;28952;-72
2023/09/17 02:58:09;;;;;;;7.30;6.70;;;17.90;99.90;;;;;;460514;258;29457;-72
2023/09/17 03:00:13;;;;;;;6.60;6.00;;;17.90;99.90;;;;;;469667;253;29576;-74
2023/09/17 03:02:12;;;;;;;8.37;7.57;;;18.00;99.90;;;;;;460412;258;29424;-72
2023/09/17 03:04:13;;;;;;;9.20;6.40;;;18.00;99.90;;;;;;469615;253;29048;-73
2023/09/17 03:06:15;;;;;;;8.47;7.60;;;18.00;99.90;;;;;;460527;253;29100;-71
2023/09/17 03:08:16;;;;;;;7.90;7.03;;;18.00;99.90;;;;;;469618;248;28970;-72
2023/09/17 03:10:20;;;;;;;8.10;6.80;;;18.00;99.90;;;;;;460498;258;29102;-72
2023/09/17 03:12:18;;;;;;;7.73;6.93;;;18.00;99.90;;;;;;469380;253;28943;-71
2023/09/17 03:14:20;;;;;;;7.00;6.30;;;18.00;99.90;;;;;;460445;258;29013;-72
2023/09/17 03:16:21;;;;;;;9.17;7.00;;;18.00;99.90;;;;;;469613;253;28978;-75
2023/09/17 03:18:22;;;;;;;7.47;6.50;;;18.00;99.90;;;;;;469553;253;28947;-72
2023/09/17 03:20:25;;;;;;;10.33;7.40;;;18.10;99.90;;;;;;460460;258;28993;-72
2023/09/17 03:22:24;;;;;;;8.00;7.20;;;18.10;99.90;;;;;;469516;253;29385;-72
2023/09/17 03:24:26;;;;;;;7.83;5.70;;;18.20;99.90;;;;;;460494;258;29471;-72
2023/09/17 03:26:27;;;;;;;8.00;6.73;;;18.20;99.90;;;;;;469645;253;29626;-73
2023/09/17 03:28:28;;;;;;;9.03;5.90;;;18.30;99.90;;;;;;460506;258;28950;-72
2023/09/17 03:30:29;;;;;;;6.27;5.60;;;18.30;99.90;;;;;;469637;253;29000;-71
2023/09/17 03:32:31;;;;;;;7.13;5.47;;;18.30;99.90;;;;;;468939;253;28884;-71
2023/09/17 03:34:33;;;;;;;6.10;5.60;;;18.30;99.90;;;;;;468620;253;28902;-72
2023/09/17 03:36:36;;;;;;;6.40;5.27;;;18.40;99.90;;;;;;468563;254;28840;-73
2023/09/17 03:38:34;;;;;;;6.23;5.10;;;18.40;99.90;;;;;;468447;253;28894;-72
2023/09/17 03:40:36;;;;;;;6.90;5.63;;;18.30;99.90;;;;;;468618;253;28851;-72
2023/09/17 03:42:37;;;;;;;6.10;5.47;;;18.40;99.90;;;;;;468624;253;28917;-74
2023/09/17 03:44:38;;;;;;;7.73;5.17;;;18.30;99.90;;;;;;468624;253;28785;-71
2023/09/17 03:46:39;;;;;;;6.27;5.73;;;18.30;99.90;;;;;;468637;253;29301;-72
2023/09/17 03:48:41;;;;;;;5.63;5.13;;;18.40;99.90;;;;;;468592;254;29393;-73
2023/09/17 03:50:42;;;;;;;5.87;4.50;;;18.40;99.90;;;;;;468610;253;29426;-74
2023/09/17 03:52:43;;;;;;;7.87;5.43;;;18.40;99.90;;;;;;468630;253;28952;-76
2023/09/17 03:54:44;;;;;;;5.77;5.20;;;18.40;99.90;;;;;;468627;254;28786;-73
2023/09/17 03:56:46;;;;;;;4.80;4.40;;;18.40;99.90;;;;;;468597;253;28947;-74
2023/09/17 03:58:48;;;;;;;8.33;5.43;;;18.30;99.90;;;;;;468609;253;28784;-71
2023/09/17 04:00:48;;;;;;;5.23;4.83;;;18.30;99.90;;;;;;468578;249;28837;-72
2023/09/17 04:02:49;;;;;;;5.20;4.70;;;18.30;99.90;;;;;;468623;249;28963;-76
2023/09/17 04:04:51;;;;;;;5.73;4.97;;;18.30;99.90;;;;;;468629;253;28800;-74
2023/09/17 04:06:52;;;;;;;9.70;5.13;;;18.30;99.90;;;;;;468604;253;28951;-73
2023/09/17 04:08:53;;;;;;;14.20;4.63;;;18.30;99.90;;;;;;468610;253;28802;-73
2023/09/17 04:10:54;;;;;;;5.23;4.30;;;18.30;99.90;;;;;;468629;253;29360;-73
2023/09/17 04:12:56;;;;;;;4.90;4.40;;;18.30;99.90;;;;;;468650;253;29396;-74
2023/09/17 04:14:57;;;;;;;5.17;4.70;;;18.30;99.90;;;;;;468627;253;29252;-73
2023/09/17 04:16:59;;;;;;;5.17;4.67;;;18.30;99.90;;;;;;468625;253;28966;-73
2023/09/17 04:18:59;;;;;;;4.73;4.20;;;18.30;99.90;;;;;;468623;253;28836;-74
2023/09/17 04:21:01;;;;;;;5.50;4.10;;;18.20;99.90;;;;;;468653;253;28796;-71
2023/09/17 04:23:03;;;;;;;4.63;4.20;;;18.30;99.90;;;;;;468633;253;28940;-73
2023/09/17 04:25:06;;;;;;;5.20;4.70;;;18.30;99.90;;;;;;468564;253;28812;-71
2023/09/17 04:27:04;;;;;;;5.20;4.70;;;18.20;99.90;;;;;;468435;253;28874;-71
2023/09/17 04:29:09;;;;;;;4.70;4.30;;;18.20;99.90;;;;;;468681;253;29169;-73
2023/09/17 04:31:07;;;;;;;4.33;3.97;;;18.20;99.90;;;;;;468420;253;28872;-72
2023/09/17 04:33:08;;;;;;;4.40;4.00;;;18.20;99.90;;;;;;468632;253;28849;-72
2023/09/17 04:35:10;;;;;;;5.13;4.33;;;18.20;99.90;;;;;;468652;253;29244;-74
2023/09/17 04:37:11;;;;;;;4.47;3.97;;;18.10;99.90;;;;;;468615;253;29336;-72
2023/09/17 04:39:14;;;;;;;5.07;4.33;;;18.10;99.90;;;;;;468654;253;29322;-73
2023/09/17 04:41:13;;;;;;;4.60;4.20;;;18.10;99.90;;;;;;468518;253;29283;-71
2023/09/17 04:43:14;;;;;;;4.43;4.03;;;18.10;99.90;;;;;;468602;249;28908;-72
2023/09/17 04:45:16;;;;;;;5.30;4.70;;;18.10;99.90;;;;;;468622;253;28951;-72
2023/09/17 04:47:17;;;;;;;5.07;3.90;;;18.00;99.90;;;;;;468627;253;28804;-72
2023/09/17 04:49:18;;;;;;;7.60;4.70;;;18.00;99.90;;;;;;468636;253;28878;-72
2023/09/17 04:51:20;;;;;;;4.40;3.93;;;18.00;99.90;;;;;;468624;253;28850;-71
2023/09/17 04:53:21;;;;;;;8.10;4.30;;;17.90;99.90;;;;;;468559;253;28843;-73
2023/09/17 04:55:22;;;;;;;6.23;4.53;;;17.90;99.90;;;;;;468634;253;29178;-75
2023/09/17 04:57:23;;;;;;;4.33;4.03;;;18.00;99.90;;;;;;468627;253;28787;-71
2023/09/17 04:59:25;;;;;;;5.20;4.37;;;18.00;99.90;;;;;;468622;253;29261;-72
2023/09/17 05:01:26;;;;;;;5.33;4.30;;;18.00;99.90;;;;;;468568;253;29307;-72
2023/09/17 05:03:27;;;;;;;4.60;4.17;;;18.00;99.90;;;;;;468617;253;29251;-71
2023/09/17 05:05:28;;;;;;;7.87;5.00;;;18.00;99.90;;;;;;468638;253;29317;-74
2023/09/17 05:07:29;;;;;;;5.47;4.00;;;18.00;99.90;;;;;;468605;253;28798;-73
2023/09/17 05:09:31;;;;;;;5.13;4.30;;;18.00;99.90;;;;;;468600;254;28875;-73
2023/09/17 05:11:32;;;;;;;4.70;4.30;;;17.90;99.90;;;;;;468586;253;28872;-73
2023/09/17 05:13:33;;;;;;;5.70;3.47;;;17.90;99.90;;;;;;468628;249;28788;-73
2023/09/17 05:15:36;;;;;;;4.87;4.00;;;17.90;99.90;;;;;;468641;250;28848;-73
2023/09/17 05:17:36;;;;;;;7.07;4.30;;;18.00;99.90;;;;;;468480;253;28947;-73
2023/09/17 05:19:37;;;;;;;5.17;4.00;;;18.00;99.90;;;;;;468613;253;28844;-73
2023/09/17 05:21:39;;;;;;;5.20;3.80;;;18.00;99.90;;;;;;468634;254;28819;-74
2023/09/17 05:23:39;;;;;;;5.67;3.73;;;18.00;99.90;;;;;;468647;253;29367;-73
2023/09/17 05:25:41;;;;;;;3.97;3.67;;;18.00;99.90;;;;;;468604;253;29304;-73
2023/09/17 05:27:42;;;;;;;5.97;4.03;;;18.00;99.90;;;;;;468607;253;29244;-73
2023/09/17 05:29:43;;;;;;;8.83;4.13;;;18.00;99.90;;;;;;468583;254;29400;-73
2023/09/17 05:31:44;;;;;;;5.50;4.30;;;18.00;99.90;;;;;;468623;250;28929;-74
2023/09/17 05:33:46;;;;;;;5.40;3.90;;;18.00;99.90;;;;;;468602;253;28836;-73
2023/09/17 05:35:47;;;;;;;5.03;4.20;;;18.00;99.90;;;;;;468606;254;28835;-73
2023/09/17 05:37:48;;;;;;;4.17;3.77;;;18.10;99.90;;;;;;468591;253;28828;-73
2023/09/17 05:39:50;;;;;;;5.73;3.90;;;18.10;99.90;;;;;;468607;253;28888;-73
2023/09/17 05:41:51;;;;;;;5.63;4.07;;;18.10;99.90;;;;;;468602;250;28840;-73
2023/09/17 05:43:52;;;;;;;6.10;4.40;;;18.00;99.90;;;;;;468598;253;28875;-73
2023/09/17 05:45:56;;;;;;;8.00;4.77;;;18.00;99.90;;;;;;468570;253;28835;-73
2023/09/17 05:47:54;;;;;;;6.13;4.10;;;18.00;99.90;;;;;;468448;253;29441;-73
2023/09/17 05:49:57;;;;;;;4.30;3.50;;;18.00;99.90;;;;;;468624;253;29469;-73
2023/09/17 05:51:57;;;;;;;4.73;4.10;;;17.90;99.90;;;;;;468540;253;30075;-73
2023/09/17 05:53:58;;;;;;;4.40;3.90;;;17.80;99.90;;;;;;468606;253;29260;-73
2023/09/17 05:55:59;;;;;;;5.47;4.30;;;17.80;99.90;;;;;;468593;253;28896;-73
2023/09/17 05:58:01;;;;;;;6.33;4.83;;;17.80;99.90;;;;;;468618;253;28856;-74
2023/09/17 06:00:03;;;;;;;5.80;4.83;;;17.70;99.90;;;;;;468613;253;28907;-74
2023/09/17 06:02:03;;;;;;;5.10;4.70;;;17.60;99.90;;;;;;468597;253;28855;-73
2023/09/17 06:04:05;;;;;;;6.70;4.83;;;17.70;99.90;;;;;;468566;254;28803;-73
2023/09/17 06:06:06;;;;;;;10.90;5.67;;;17.60;99.90;;;;;;468556;254;28891;-73
2023/09/17 06:08:08;;;;;;;7.63;5.30;;;17.60;99.90;;;;;;468112;249;28926;-73
2023/09/17 06:10:08;;;;;;;7.80;4.77;;;17.60;99.90;;;;;;468418;253;28994;-73
2023/09/17 06:12:10;;;;;;;9.33;5.67;;;17.60;99.90;;;;;;468483;253;29293;-73
2023/09/17 06:14:11;;;;;;;5.23;4.50;;;17.60;99.90;;;;;;468565;254;30212;-72
2023/09/17 06:16:12;;;;;;;6.53;5.20;;;17.60;99.90;;;;;;468579;254;29267;-72
2023/09/17 06:18:16;;;;;;;6.90;4.77;;;17.60;99.90;;;;;;468175;253;29774;-73
2023/09/17 06:20:15;;;;;;;5.27;4.70;;;17.60;99.90;;;;;;468031;249;28841;-71
2023/09/17 06:22:16;;;;;;;8.87;4.77;;;17.60;99.90;;;;;;468283;254;28818;-74
2023/09/17 06:24:17;;;;;;;6.33;4.90;;;17.70;99.90;;;;;;468580;253;28864;-75
2023/09/17 06:26:18;;;;;;;5.27;4.40;;;17.80;99.90;;;;;;468618;253;28877;-71
2023/09/17 06:28:20;;;;;;;5.47;4.50;;;17.80;99.90;;;;;;468353;249;29001;-73
2023/09/17 06:30:21;;;;;;;8.97;4.37;;;17.90;99.90;;;;;;468159;254;29323;-72
2023/09/17 06:32:22;;;;;;;4.60;4.20;;;17.90;99.90;;;;;;470225;249;28773;-73
2023/09/17 06:34:23;;;;;;;4.60;3.90;;;17.90;99.90;;;;;;468593;253;28768;-73
2023/09/17 06:36:25;;;;;;;6.70;4.27;;;18.00;99.90;;;;;;468734;253;28922;-73
2023/09/17 06:38:26;;;;;;;6.17;4.10;;;18.00;99.90;;;;;;468273;253;29477;-72
2023/09/17 06:40:27;;;;;;;5.47;4.13;;;18.00;99.90;;;;;;468470;253;30337;-72
2023/09/17 06:42:29;;;;;;;9.00;4.37;;;18.10;99.90;;;;;;468623;253;29252;-72
2023/09/17 06:44:30;;;;;;;10.30;4.67;;;18.10;99.90;;;;;;468815;253;29259;-73
2023/09/17 06:46:31;;;;;;;6.33;4.30;;;18.10;99.90;;;;;;468499;253;28923;-72
2023/09/17 06:48:32;;;;;;;6.60;4.07;;;18.20;99.90;;;;;;468507;253;29053;-74
2023/09/17 06:50:33;;;;;;;8.10;4.10;;;18.20;99.90;;;;;;468641;253;28812;-71
2023/09/17 06:52:35;;;;;;;4.77;4.23;;;18.20;99.90;;;;;;468875;253;28940;-71
2023/09/17 06:54:36;;;;;;;5.90;4.20;;;18.40;99.90;;;;;;468528;253;29017;-72
2023/09/17 06:56:37;;;;;;;5.00;4.47;;;18.50;99.90;;;;;;468508;253;28917;-73
2023/09/17 06:58:38;;;;;;;5.03;4.30;;;18.60;99.90;;;;;;468603;253;28686;-73
2023/09/17 07:00:40;;;;;;;5.90;3.80;;;18.60;99.90;;;;;;468882;253;29035;-73
2023/09/17 07:02:41;;;;;;;5.53;4.77;;;18.70;99.90;;;;;;468508;253;29360;-71
2023/09/17 07:04:43;;;;;;;9.80;4.60;;;18.70;99.90;;;;;;468489;250;29424;-73
2023/09/17 07:06:43;;;;;;;4.30;3.90;;;18.80;99.90;;;;;;468557;253;29195;-74
2023/09/17 07:08:45;;;;;;;4.30;3.90;;;18.80;99.90;;;;;;468895;253;28926;-72
2023/09/17 07:10:46;;;;;;;4.73;4.00;;;18.80;99.90;;;;;;468539;253;28953;-74
2023/09/17 07:12:47;;;;;;;4.50;4.10;;;18.90;99.90;;;;;;468520;253;28921;-74
2023/09/17 07:14:48;;;;;;;8.30;4.33;;;19.00;99.90;;;;;;468624;253;28745;-73
2023/09/17 07:16:50;;;;;;;4.73;4.30;;;19.00;99.90;;;;;;468894;253;28974;-73
2023/09/17 07:18:51;;;;;;;4.73;4.10;;;19.10;99.90;;;;;;468546;250;28839;-73
2023/09/17 07:20:52;;;;;;;6.07;4.10;;;19.10;99.90;;;;;;468457;253;29004;-75
2023/09/17 07:22:53;;;;;;;4.20;3.80;;;19.10;99.90;;;;;;468640;253;28642;-73
2023/09/17 07:24:58;;;;;;;6.83;4.53;;;19.20;99.90;;;;;;468898;253;28946;-73
2023/09/17 07:26:56;;;;;;;4.90;3.70;;;19.20;99.90;;;;;;468359;253;29563;-74
2023/09/17 07:28:57;;;;;;;5.47;4.00;;;19.30;99.90;;;;;;468549;253;29449;-74
2023/09/17 07:30:58;;;;;;;6.40;4.20;;;19.50;99.90;;;;;;468647;253;29183;-74
2023/09/17 07:33:00;;;;;;;6.33;4.00;;;19.50;99.90;;;;;;468893;253;28941;-73
2023/09/17 07:35:04;;;;;;;5.67;3.90;;;19.60;99.90;;;;;;468485;253;28960;-74
2023/09/17 07:37:05;;;;;;;5.50;4.10;;;19.70;99.90;;;;;;468530;253;29366;-74
2023/09/17 07:39:06;;;;;;;6.60;4.60;;;19.80;99.90;;;;;;468642;253;29340;-74
2023/09/17 07:41:08;;;;;;;6.03;4.40;;;19.80;99.90;;;;;;468870;253;29381;-74
2023/09/17 07:43:09;;;;;;;7.33;4.70;;;19.90;99.90;;;;;;468474;253;28988;-73
2023/09/17 07:45:12;;;;;;;7.63;4.37;;;19.90;99.90;;;;;;468524;253;29009;-75
2023/09/17 07:47:12;;;;;;;7.43;5.03;;;20.00;99.90;;;;;;468508;253;28700;-73
2023/09/17 07:49:13;;;;;;;5.53;4.40;;;20.10;99.90;;;;;;468879;253;28946;-73
2023/09/17 07:51:14;;;;;;;7.10;4.57;;;20.10;99.90;;;;;;468473;253;29002;-73
2023/09/17 07:53:15;;;;;;;5.07;4.37;;;20.20;99.90;;;;;;468501;253;28953;-73
2023/09/17 07:55:18;;;;;;;6.87;4.30;;;20.30;99.90;;;;;;468623;249;28805;-73
2023/09/17 07:57:18;;;;;;;8.73;4.57;;;20.40;99.90;;;;;;468757;253;28918;-73
2023/09/17 07:59:19;;;;;;;6.03;4.60;;;20.30;99.90;;;;;;468410;253;29051;-73
2023/09/17 08:01:20;;;;;;;8.37;4.40;;;20.30;99.90;;;;;;468478;253;30286;-74
2023/09/17 08:03:21;;;;;;;4.53;3.60;;;20.30;99.90;;;;;;468648;253;29166;-74
2023/09/17 08:05:25;;;;;;;5.73;3.80;;;20.40;99.90;;;;;;468888;253;29510;-75
2023/09/17 08:07:24;;;;;;;8.00;4.20;;;20.40;99.90;;;;;;468394;253;28972;-74
2023/09/17 08:09:25;;;;;;;7.97;5.20;;;20.40;99.90;;;;;;468485;253;29066;-74
2023/09/17 08:11:27;;;;;;;5.80;4.40;;;20.50;99.90;;;;;;468629;253;28734;-74
2023/09/17 08:13:28;;;;;;;7.03;4.80;;;20.50;99.90;;;;;;468871;253;28904;-74
2023/09/17 08:15:29;;;;;;;6.73;4.30;;;20.50;99.90;;;;;;468474;254;28946;-74
2023/09/17 08:17:30;;;;;;;8.57;4.97;;;20.60;99.90;;;;;;468489;253;29045;-73
2023/09/17 08:19:32;;;;;;;5.03;3.80;;;20.60;99.90;;;;;;468609;253;28775;-73
2023/09/17 08:21:33;;;;;;;6.93;3.90;;;20.70;99.90;;;;;;468909;253;29360;-75
2023/09/17 08:23:34;;;;;;;7.03;5.03;;;20.80;99.90;;;;;;468511;250;29020;-74
2023/09/17 08:25:35;;;;;;;6.30;5.43;;;20.80;99.90;;;;;;468526;253;29518;-74
2023/09/17 08:27:36;;;;;;;9.87;5.20;;;20.80;99.90;;;;;;468574;253;29190;-73
2023/09/17 08:29:38;;;;;;;5.43;4.30;;;20.80;99.90;;;;;;468873;253;29390;-74
2023/09/17 08:31:39;;;;;;;7.80;4.77;;;20.90;99.90;;;;;;468527;253;28970;-73
2023/09/17 08:33:40;;;;;;;6.87;4.40;;;20.90;99.90;;;;;;468501;253;28920;-73
2023/09/17 08:35:41;;;;;;;11.77;5.20;;;20.90;99.90;;;;;;468606;253;28695;-74
2023/09/17 08:37:43;;;;;;;6.80;4.50;;;21.00;99.90;;;;;;468847;253;28942;-73
2023/09/17 08:39:44;;;;;;;5.57;4.30;;;20.90;99.90;;;;;;468516;253;29034;-73
2023/09/17 08:41:45;;;;;;;6.70;3.47;;;21.00;99.90;;;;;;468507;253;29047;-73
2023/09/17 08:43:46;;;;;;;6.83;4.20;;;21.00;99.90;;;;;;468610;253;28683;-73
2023/09/17 08:45:48;;;;;;;6.67;4.30;;;21.00;99.90;;;;;;468838;253;28980;-74
2023/09/17 08:47:49;;;;;;;8.57;4.57;;;21.00;99.90;;;;;;468503;253;28937;-76
2023/09/17 08:49:51;;;;;;;6.67;4.60;;;21.10;99.90;;;;;;468498;253;29379;-74
2023/09/17 08:51:51;;;;;;;7.40;3.83;;;21.20;99.90;;;;;;468625;253;29172;-74
2023/09/17 08:53:53;;;;;;;5.70;3.57;;;21.20;99.90;;;;;;468845;253;29472;-73
2023/09/17 08:55:55;;;;;;;5.00;4.37;;;21.20;99.90;;;;;;468492;253;28944;-73
2023/09/17 08:57:55;;;;;;;8.80;4.30;;;21.30;99.90;;;;;;468506;253;29065;-75
2023/09/17 08:59:56;;;;;;;6.80;4.10;;;21.40;99.90;;;;;;468618;253;28675;-74
2023/09/17 09:01:59;;;;;;;5.60;4.27;;;21.20;99.90;;;;;;468852;253;28937;-74
2023/09/17 09:03:59;;;;;;;10.43;3.90;;;21.30;99.90;;;;;;468435;253;28950;-73
2023/09/17 09:06:00;;;;;;;7.77;4.43;;;21.30;99.90;;;;;;468520;253;28921;-74
2023/09/17 09:08:01;;;;;;;6.37;4.50;;;21.30;99.90;;;;;;468638;253;28671;-74
2023/09/17 09:10:03;;;;;;;5.90;3.90;;;21.40;99.90;;;;;;468668;253;28898;-73
2023/09/17 09:12:04;;;;;;;5.50;4.80;;;21.40;99.90;;;;;;467798;254;28976;-75
2023/09/17 09:14:05;;;;;;;7.20;4.93;;;21.40;99.90;;;;;;468314;253;29675;-74
2023/09/17 09:16:06;;;;;;;5.03;4.40;;;21.40;99.90;;;;;;465174;255;29658;-74
2023/09/17 09:18:08;;;;;;;9.03;5.10;;;21.40;99.90;;;;;;459235;258;29505;-74
2023/09/17 09:20:14;;;;;;;9.90;5.80;;;21.60;99.90;;;;;;468916;253;28945;-74
2023/09/17 09:22:13;;;;;;;6.10;4.00;;;21.70;99.90;;;;;;459144;259;29060;-73
2023/09/17 09:24:14;;;;;;;4.40;3.93;;;21.80;99.90;;;;;;466952;254;28948;-74
2023/09/17 09:26:15;;;;;;;5.60;3.83;;;21.80;99.90;;;;;;465654;255;28923;-74
2023/09/17 09:28:17;;;;;;;16.80;5.50;;;21.80;99.90;;;;;;459298;258;28993;-74
2023/09/17 09:30:18;;;;;;;6.90;4.53;;;21.80;99.90;;;;;;469000;253;29065;-73
2023/09/17 09:32:19;;;;;;;8.20;4.50;;;21.80;99.90;;;;;;459372;259;28956;-74
2023/09/17 09:34:20;;;;;;;6.13;4.53;;;21.90;99.90;;;;;;467774;254;28992;-73
2023/09/17 09:36:22;;;;;;;4.93;4.40;;;22.00;99.90;;;;;;467004;253;29381;-75
2023/09/17 09:38:23;;;;;;;7.10;4.90;;;22.10;99.90;;;;;;467100;254;29401;-72
2023/09/17 09:40:25;;;;;;;8.80;4.70;;;22.20;99.90;;;;;;467109;253;29389;-73
2023/09/17 09:42:26;;;;;;;7.67;4.60;;;22.20;99.90;;;;;;467072;253;29436;-73
2023/09/17 09:44:27;;;;;;;5.80;4.33;;;22.20;99.90;;;;;;467039;253;28957;-73
2023/09/17 09:46:31;;;;;;;7.47;4.37;;;22.30;99.90;;;;;;467130;253;28869;-74
2023/09/17 09:48:32;;;;;;;5.97;4.37;;;22.40;99.90;;;;;;467116;253;28950;-73
2023/09/17 09:50:33;;;;;;;11.27;5.20;;;22.40;99.90;;;;;;467158;253;28923;-73
2023/09/17 09:52:35;;;;;;;7.00;5.07;;;22.50;99.90;;;;;;467149;254;28834;-73
2023/09/17 09:54:36;;;;;;;7.30;4.50;;;22.60;99.90;;;;;;467134;253;29257;-73
2023/09/17 09:56:37;;;;;;;7.73;4.37;;;22.60;99.90;;;;;;467126;249;28835;-73
2023/09/17 09:58:41;;;;;;;7.63;4.83;;;22.60;99.90;;;;;;467147;253;28941;-73
2023/09/17 10:00:44;;;;;;;5.77;4.10;;;22.70;99.90;;;;;;466855;254;29450;-73
2023/09/17 10:02:41;;;;;;;8.30;4.53;;;22.70;99.90;;;;;;466895;254;29492;-74
2023/09/17 10:04:43;;;;;;;5.90;4.70;;;22.80;99.90;;;;;;467132;253;29344;-73
2023/09/17 10:06:44;;;;;;;9.50;4.13;;;22.70;99.90;;;;;;467151;249;29391;-73
2023/09/17 10:08:45;;;;;;;8.30;5.00;;;22.70;99.90;;;;;;467100;254;28882;-73
2023/09/17 10:10:46;;;;;;;6.10;4.73;;;22.90;99.90;;;;;;467146;253;29025;-75
2023/09/17 10:12:47;;;;;;;8.63;4.33;;;23.00;99.90;;;;;;467116;249;28824;-73
2023/09/17 10:14:49;;;;;;;8.00;4.80;;;23.10;99.90;;;;;;467116;253;29001;-73
2023/09/17 10:16:50;;;;;;;6.83;4.23;;;23.20;99.90;;;;;;467122;249;28914;-74
2023/09/17 10:18:51;;;;;;;5.03;3.80;;;23.30;99.90;;;;;;467124;253;28885;-73
2023/09/17 10:20:52;;;;;;;6.83;4.57;;;23.30;99.90;;;;;;467149;253;28918;-74
2023/09/17 10:22:54;;;;;;;4.93;4.20;;;23.40;99.90;;;;;;467159;253;28933;-72
2023/09/17 10:24:55;;;;;;;7.23;4.50;;;23.40;99.90;;;;;;467151;253;28974;-74
2023/09/17 10:26:56;;;;;;;6.13;4.10;;;23.40;99.90;;;;;;467144;253;29810;-72
2023/09/17 10:28:57;;;;;;;6.00;3.73;;;23.40;99.90;;;;;;467160;253;29298;-73